createdAt,value
2023-02-01T00:01:18.676Z,1.96
2023-02-01T00:03:52.033Z,1.92
2023-02-01T00:06:25.402Z,2.00
2023-02-01T00:08:58.968Z,1.98
2023-02-01T00:11:32.316Z,1.99
2023-02-01T00:14:07.749Z,1.99
2023-02-01T00:16:42.302Z,1.96
2023-02-01T00:19:16.875Z,1.99
2023-02-01T00:21:50.350Z,1.97
2023-02-01T00:24:23.691Z,1.95
2023-02-01T00:26:56.939Z,2.05
2023-02-01T00:29:31.732Z,2.01
2023-02-01T00:32:05.786Z,2.04
2023-02-01T00:34:39.292Z,1.99
2023-02-01T00:37:12.815Z,2.01
2023-02-01T00:39:45.971Z,2.07
2023-02-01T00:42:19.224Z,2.08
2023-02-01T00:44:53.764Z,2.08
2023-02-01T00:47:27.779Z,2.11
2023-02-01T00:50:01.285Z,2.05
2023-02-01T00:52:34.478Z,2.08
2023-02-01T00:55:08.365Z,2.00
2023-02-01T00:57:41.839Z,1.99
2023-02-01T01:00:18.008Z,1.99
2023-02-01T01:02:51.337Z,1.95
2023-02-01T01:05:24.875Z,1.98
2023-02-01T01:07:58.264Z,1.97
2023-02-01T01:10:31.545Z,1.97
2023-02-01T01:13:05.034Z,1.91
2023-02-01T01:15:41.556Z,1.88
2023-02-01T01:18:14.883Z,1.55
2023-02-01T01:20:49.941Z,1.90
2023-02-01T01:23:23.531Z,1.88
2023-02-01T01:25:56.787Z,1.89
2023-02-01T01:28:30.559Z,1.88
2023-02-01T01:31:05.813Z,1.82
2023-02-01T01:33:39.477Z,1.93
2023-02-01T01:36:13.233Z,1.89
2023-02-01T01:38:47.531Z,1.90
2023-02-01T01:41:23.904Z,1.89
2023-02-01T01:43:58.719Z,1.87
2023-02-01T01:46:34.946Z,1.89
2023-02-01T01:49:12.682Z,1.86
2023-02-01T01:52:01.413Z,1.78
2023-02-01T01:54:37.298Z,1.76
2023-02-01T01:57:14.207Z,1.81
2023-02-01T01:59:52.201Z,1.81
2023-02-01T02:02:26.941Z,1.81
2023-02-01T02:05:00.334Z,1.77
2023-02-01T02:07:39.955Z,1.75
2023-02-01T02:10:14.600Z,1.74
2023-02-01T02:12:50.723Z,1.69
2023-02-01T02:15:25.041Z,1.76
2023-02-01T02:18:07.279Z,1.71
2023-02-01T02:21:04.121Z,1.66
2023-02-01T02:24:11.660Z,1.67
2023-02-01T02:27:04.838Z,1.62
2023-02-01T02:30:11.764Z,1.63
2023-02-01T02:33:10.623Z,1.56
2023-02-01T02:35:50.181Z,1.56
2023-02-01T02:38:31.978Z,1.24
2023-02-01T02:41:39.758Z,1.58
2023-02-01T02:44:33.971Z,1.49
2023-02-01T02:47:26.587Z,1.44
2023-02-01T02:50:29.580Z,1.29
2023-02-01T02:53:27.813Z,1.30
2023-02-01T02:56:20.056Z,1.35
2023-02-01T02:59:11.816Z,1.34
2023-02-01T03:02:03.283Z,1.18
2023-02-01T03:04:36.586Z,1.28
2023-02-01T03:07:15.307Z,1.30
2023-02-01T03:09:51.381Z,1.30
2023-02-01T03:12:57.526Z,1.26
2023-02-01T03:15:37.748Z,1.26
2023-02-01T03:18:17.203Z,1.29
2023-02-01T03:20:54.403Z,1.32
2023-02-01T03:23:32.974Z,1.19
2023-02-01T03:26:11.937Z,1.30
2023-02-01T03:28:50.197Z,1.24
2023-02-01T03:31:24.265Z,1.30
2023-02-01T03:33:58.090Z,1.30
2023-02-01T03:36:37.952Z,1.32
2023-02-01T03:39:17.817Z,1.06
2023-02-01T03:41:56.110Z,1.24
2023-02-01T03:44:35.823Z,1.36
2023-02-01T03:47:13.739Z,1.30
2023-02-01T03:49:50.908Z,1.34
2023-02-01T03:52:28.152Z,1.37
2023-02-01T03:55:03.347Z,1.48
2023-02-01T03:57:41.545Z,1.34
2023-02-01T04:00:19.752Z,1.52
2023-02-01T04:02:54.308Z,1.53
2023-02-01T04:05:27.883Z,1.55
2023-02-01T04:08:01.654Z,1.61
2023-02-01T04:10:34.995Z,1.63
2023-02-01T04:13:10.384Z,1.64
2023-02-01T04:15:44.153Z,1.53
2023-02-01T04:18:17.547Z,1.67
2023-02-01T04:20:50.836Z,1.62
2023-02-01T04:23:24.415Z,1.60
2023-02-01T04:26:01.470Z,1.67
2023-02-01T04:28:36.577Z,1.68
2023-02-01T04:31:10.257Z,1.71
2023-02-01T04:33:43.551Z,1.76
2023-02-01T04:36:20.606Z,1.73
2023-02-01T04:38:54.594Z,1.72
2023-02-01T04:41:27.811Z,1.72
2023-02-01T04:44:02.775Z,1.69
2023-02-01T04:46:36.142Z,1.69
2023-02-01T04:49:11.033Z,1.68
2023-02-01T04:51:45.171Z,1.71
2023-02-01T04:54:18.885Z,1.67
2023-02-01T04:56:52.126Z,1.65
2023-02-01T04:59:26.860Z,1.60
2023-02-01T05:02:00.357Z,1.60
2023-02-01T05:04:33.878Z,1.58
2023-02-01T05:07:07.459Z,1.52
2023-02-01T05:09:41.137Z,1.51
2023-02-01T05:12:32.665Z,1.48
2023-02-01T05:15:09.046Z,1.48
2023-02-01T05:17:43.278Z,1.47
2023-02-01T05:20:16.732Z,1.45
2023-02-01T05:22:49.946Z,1.47
2023-02-01T05:25:23.463Z,1.45
2023-02-01T05:27:56.913Z,1.41
2023-02-01T05:30:33.521Z,1.46
2023-02-01T05:33:07.373Z,1.45
2023-02-01T05:35:40.783Z,1.42
2023-02-01T05:38:17.443Z,1.39
2023-02-01T05:40:50.938Z,1.43
2023-02-01T05:43:24.508Z,1.48
2023-02-01T05:45:59.691Z,1.44
2023-02-01T05:48:33.284Z,1.42
2023-02-01T05:51:06.745Z,1.07
2023-02-01T05:53:40.026Z,1.44
2023-02-01T05:56:13.335Z,1.44
2023-02-01T05:58:46.678Z,1.42
2023-02-01T06:01:21.350Z,1.39
2023-02-01T06:03:54.757Z,1.39
2023-02-01T06:06:28.625Z,1.43
2023-02-01T06:09:02.053Z,1.41
2023-02-01T06:11:35.424Z,1.48
2023-02-01T06:14:08.971Z,1.43
2023-02-01T06:16:43.701Z,1.45
2023-02-01T06:19:17.385Z,1.48
2023-02-01T06:21:50.894Z,1.58
2023-02-01T06:24:24.560Z,1.55
2023-02-01T06:26:57.956Z,1.58
2023-02-01T06:29:31.400Z,1.61
2023-02-01T06:32:06.205Z,1.68
2023-02-01T06:34:40.631Z,1.68
2023-02-01T06:37:13.926Z,1.58
2023-02-01T06:39:47.934Z,1.74
2023-02-01T06:42:21.450Z,1.74
2023-02-01T06:44:54.660Z,1.79
2023-02-01T06:47:29.578Z,1.83
2023-02-01T06:50:03.993Z,1.85
2023-02-01T06:52:37.877Z,1.89
2023-02-01T06:55:11.987Z,1.90
2023-02-01T06:57:45.692Z,1.88
2023-02-01T07:00:20.053Z,1.96
2023-02-01T07:02:54.694Z,2.00
2023-02-01T07:05:28.069Z,2.11
2023-02-01T07:08:01.350Z,2.17
2023-02-01T07:10:36.418Z,2.25
2023-02-01T07:13:10.373Z,2.35
2023-02-01T07:15:43.791Z,2.45
2023-02-01T07:18:18.903Z,2.54
2023-02-01T07:20:52.594Z,2.68
2023-02-01T07:23:25.873Z,2.65
2023-02-01T07:26:02.251Z,2.58
2023-02-01T07:28:37.168Z,2.76
2023-02-01T07:31:12.057Z,2.77
2023-02-01T07:33:47.323Z,2.70
2023-02-01T07:36:21.629Z,2.78
2023-02-01T07:38:56.845Z,2.71
2023-02-01T07:41:31.031Z,2.81
2023-02-01T07:44:04.315Z,2.79
2023-02-01T07:46:37.763Z,2.81
2023-02-01T07:49:14.935Z,2.88
2023-02-01T07:51:48.122Z,2.96
2023-02-01T07:54:21.699Z,3.00
2023-02-01T07:56:55.448Z,3.09
2023-02-01T07:59:28.722Z,3.15
2023-02-01T08:02:01.116Z,3.21
2023-02-01T08:04:35.816Z,3.23
2023-02-01T08:07:09.091Z,3.33
2023-02-01T08:09:42.702Z,3.31
2023-02-01T08:12:17.627Z,3.38
2023-02-01T08:14:52.006Z,3.17
2023-02-01T08:17:25.643Z,3.62
2023-02-01T08:20:00.810Z,3.74
2023-02-01T08:22:34.644Z,3.71
2023-02-01T08:25:08.905Z,3.77
2023-02-01T08:27:42.721Z,3.82
2023-02-01T08:30:16.739Z,3.90
2023-02-01T08:32:50.059Z,4.01
2023-02-01T08:35:37.851Z,4.11
2023-02-01T08:38:16.285Z,4.10
2023-02-01T08:40:49.602Z,4.15
2023-02-01T08:43:22.677Z,4.24
2023-02-01T08:45:57.295Z,4.17
2023-02-01T08:48:30.844Z,4.23
2023-02-01T08:51:06.714Z,4.44
2023-02-01T08:53:42.371Z,4.56
2023-02-01T08:56:18.006Z,4.63
2023-02-01T08:58:51.344Z,4.73
2023-02-01T09:01:24.720Z,4.83
2023-02-01T09:03:57.929Z,4.84
2023-02-01T09:06:32.707Z,4.96
2023-02-01T09:09:06.311Z,4.80
2023-02-01T09:11:39.564Z,5.02
2023-02-01T09:14:13.258Z,5.08
2023-02-01T09:16:46.839Z,5.06
2023-02-01T09:19:26.264Z,5.04
2023-02-01T09:22:01.734Z,5.17
2023-02-01T09:24:35.454Z,5.07
2023-02-01T09:27:09.019Z,5.22
2023-02-01T09:29:42.393Z,5.29
2023-02-01T09:32:15.624Z,5.32
2023-02-01T09:34:49.541Z,5.45
2023-02-01T09:37:24.394Z,5.52
2023-02-01T09:39:58.046Z,5.50
2023-02-01T09:42:52.037Z,5.47
2023-02-01T09:45:35.213Z,5.37
2023-02-01T09:48:17.638Z,5.36
2023-02-01T09:50:56.080Z,5.41
2023-02-01T09:53:35.256Z,5.32
2023-02-01T09:56:13.953Z,5.15
2023-02-01T09:58:54.252Z,5.22
2023-02-01T10:01:30.374Z,5.66
2023-02-01T10:04:08.079Z,5.80
2023-02-01T10:06:55.529Z,5.86
2023-02-01T10:09:44.902Z,5.90
2023-02-01T10:12:40.538Z,5.95
2023-02-01T10:15:37.362Z,5.86
2023-02-01T10:18:36.590Z,5.97
2023-02-01T10:21:21.632Z,5.97
2023-02-01T10:24:31.217Z,6.07
2023-02-01T10:27:14.728Z,6.10
2023-02-01T10:29:54.438Z,6.13
2023-02-01T10:32:32.847Z,6.15
2023-02-01T10:35:15.314Z,6.14
2023-02-01T10:37:48.756Z,6.21
2023-02-01T10:40:25.824Z,6.30
2023-02-01T10:43:03.194Z,6.25
2023-02-01T10:45:36.739Z,6.35
2023-02-01T10:48:10.851Z,6.42
2023-02-01T10:50:53.537Z,6.48
2023-02-01T10:53:33.516Z,6.58
2023-02-01T10:56:09.604Z,6.52
2023-02-01T10:58:49.631Z,6.61
2023-02-01T11:01:27.391Z,6.66
2023-02-01T11:04:02.441Z,6.83
2023-02-01T11:06:38.642Z,6.99
2023-02-01T11:09:18.807Z,6.85
2023-02-01T11:11:58.681Z,7.03
2023-02-01T11:14:41.216Z,6.87
2023-02-01T11:17:29.373Z,6.75
2023-02-01T11:20:05.235Z,6.63
2023-02-01T11:22:38.837Z,6.58
2023-02-01T11:25:16.059Z,6.55
2023-02-01T11:27:55.240Z,6.55
2023-02-01T11:30:36.870Z,6.68
2023-02-01T11:33:17.501Z,6.53
2023-02-01T11:35:51.502Z,6.63
2023-02-01T11:38:31.969Z,6.65
2023-02-01T11:41:16.198Z,6.63
2023-02-01T11:43:55.283Z,6.55
2023-02-01T11:46:33.295Z,6.86
2023-02-01T11:49:21.314Z,6.99
2023-02-01T11:52:06.192Z,7.24
2023-02-01T11:55:01.229Z,7.39
2023-02-01T11:57:53.999Z,7.41
2023-02-01T12:00:49.115Z,7.46
2023-02-01T12:03:59.397Z,7.47
2023-02-01T12:06:47.577Z,7.46
2023-02-01T12:09:40.523Z,7.36
2023-02-01T12:12:21.586Z,7.28
2023-02-01T12:15:24.487Z,7.26
2023-02-01T12:18:33.025Z,7.00
2023-02-01T12:21:19.771Z,6.98
2023-02-01T12:24:10.348Z,7.13
2023-02-01T12:26:52.802Z,7.15
2023-02-01T12:30:01.875Z,7.20
2023-02-01T12:32:46.273Z,7.25
2023-02-01T12:35:45.314Z,7.30
2023-02-01T12:38:35.268Z,7.38
2023-02-01T12:41:22.235Z,7.30
2023-02-01T12:43:59.136Z,7.35
2023-02-01T12:46:35.500Z,7.34
2023-02-01T12:49:15.078Z,7.34
2023-02-01T12:51:51.715Z,7.31
2023-02-01T12:54:33.441Z,7.31
2023-02-01T12:57:11.718Z,7.34
2023-02-01T12:59:52.007Z,7.28
2023-02-01T13:02:37.061Z,7.31
2023-02-01T13:05:18.450Z,7.34
2023-02-01T13:07:57.405Z,7.40
2023-02-01T13:10:36.223Z,7.36
2023-02-01T13:13:16.606Z,7.41
2023-02-01T13:15:58.208Z,7.37
2023-02-01T13:18:38.421Z,7.48
2023-02-01T13:21:17.086Z,7.47
2023-02-01T13:23:52.299Z,7.49
2023-02-01T13:26:27.371Z,7.50
2023-02-01T13:29:06.206Z,7.51
2023-02-01T13:32:03.213Z,7.45
2023-02-01T13:35:03.955Z,7.38
2023-02-01T13:38:24.619Z,7.45
2023-02-01T13:41:16.592Z,7.48
2023-02-01T13:43:55.223Z,7.49
2023-02-01T13:46:30.015Z,7.41
2023-02-01T13:49:05.325Z,7.42
2023-02-01T13:51:43.176Z,7.14
2023-02-01T13:54:29.717Z,7.39
2023-02-01T13:57:04.798Z,7.47
2023-02-01T13:59:51.896Z,7.40
2023-02-01T14:02:54.125Z,7.43
2023-02-01T14:06:04.730Z,7.38
2023-02-01T14:08:44.981Z,7.37
2023-02-01T14:11:39.703Z,7.35
2023-02-01T14:14:49.961Z,7.37
2023-02-01T14:17:35.988Z,7.32
2023-02-01T14:20:42.347Z,7.25
2023-02-01T14:23:40.849Z,7.30
2023-02-01T14:26:23.287Z,7.26
2023-02-01T14:29:03.029Z,7.27
2023-02-01T14:31:44.582Z,7.30
2023-02-01T14:34:23.180Z,7.18
2023-02-01T14:37:00.368Z,7.09
2023-02-01T14:39:52.739Z,7.07
2023-02-01T14:42:29.102Z,7.10
2023-02-01T14:45:51.196Z,7.01
2023-02-01T14:48:48.024Z,7.01
2023-02-01T14:51:23.109Z,6.90
2023-02-01T14:53:56.681Z,6.92
2023-02-01T14:56:30.343Z,6.89
2023-02-01T14:59:11.039Z,6.85
2023-02-01T15:01:52.993Z,6.67
2023-02-01T15:04:29.742Z,6.80
2023-02-01T15:07:10.616Z,6.80
2023-02-01T15:09:47.690Z,6.76
2023-02-01T15:12:28.597Z,6.74
2023-02-01T15:15:13.800Z,6.63
2023-02-01T15:17:56.256Z,6.60
2023-02-01T15:20:34.037Z,6.61
2023-02-01T15:23:18.029Z,6.57
2023-02-01T15:25:53.671Z,6.41
2023-02-01T15:28:28.390Z,6.47
2023-02-01T15:31:03.979Z,6.40
2023-02-01T15:33:37.506Z,6.47
2023-02-01T15:36:14.037Z,6.34
2023-02-01T15:38:47.819Z,6.28
2023-02-01T15:41:23.964Z,6.20
2023-02-01T15:44:07.873Z,6.08
2023-02-01T15:46:43.480Z,6.07
2023-02-01T15:49:25.661Z,6.08
2023-02-01T15:52:02.354Z,6.09
2023-02-01T15:54:45.671Z,6.07
2023-02-01T15:57:22.897Z,6.06
2023-02-01T15:59:57.627Z,5.96
2023-02-01T16:02:35.333Z,6.04
2023-02-01T16:05:34.430Z,6.00
2023-02-01T16:08:15.036Z,5.79
2023-02-01T16:10:51.441Z,5.85
2023-02-01T16:13:25.530Z,5.85
2023-02-01T16:15:59.372Z,5.81
2023-02-01T16:18:32.950Z,5.83
2023-02-01T16:21:08.971Z,5.73
2023-02-01T16:23:44.073Z,5.64
2023-02-01T16:26:17.268Z,5.68
2023-02-01T16:28:50.716Z,5.66
2023-02-01T16:31:29.289Z,5.62
2023-02-01T16:34:03.187Z,5.53
2023-02-01T16:36:36.697Z,5.45
2023-02-01T16:39:15.003Z,5.53
2023-02-01T16:41:48.664Z,5.52
2023-02-01T16:44:21.980Z,5.48
2023-02-01T16:46:55.197Z,5.40
2023-02-01T16:49:28.787Z,5.31
2023-02-01T16:52:02.417Z,5.31
2023-02-01T16:54:37.186Z,5.23
2023-02-01T16:57:14.546Z,5.21
2023-02-01T16:59:47.772Z,5.05
2023-02-01T17:02:22.911Z,5.16
2023-02-01T17:04:56.577Z,5.11
2023-02-01T17:07:31.471Z,5.09
2023-02-01T17:10:07.353Z,5.10
2023-02-01T17:12:42.642Z,5.12
2023-02-01T17:15:16.373Z,5.03
2023-02-01T17:17:54.995Z,5.03
2023-02-01T17:20:33.064Z,4.97
2023-02-01T17:23:06.536Z,4.92
2023-02-01T17:25:42.040Z,4.88
2023-02-01T17:28:15.518Z,4.84
2023-02-01T17:30:49.007Z,4.72
2023-02-01T17:33:23.679Z,4.81
2023-02-01T17:35:57.439Z,4.75
2023-02-01T17:38:30.967Z,4.68
2023-02-01T17:41:06.412Z,4.33
2023-02-01T17:43:40.311Z,4.56
2023-02-01T17:46:15.592Z,4.54
2023-02-01T17:48:49.092Z,4.45
2023-02-01T17:51:25.133Z,4.32
2023-02-01T17:53:58.402Z,4.42
2023-02-01T17:56:33.979Z,4.38
2023-02-01T17:59:07.239Z,4.36
2023-02-01T18:01:41.291Z,4.32
2023-02-01T18:04:18.325Z,4.27
2023-02-01T18:06:51.641Z,4.23
2023-02-01T18:09:25.416Z,4.23
2023-02-01T18:12:01.202Z,4.22
2023-02-01T18:14:34.707Z,4.10
2023-02-01T18:17:08.195Z,4.13
2023-02-01T18:19:42.053Z,4.10
2023-02-01T18:22:25.713Z,4.10
2023-02-01T18:24:59.071Z,4.06
2023-02-01T18:27:33.675Z,4.01
2023-02-01T18:30:07.886Z,3.99
2023-02-01T18:32:41.934Z,3.98
2023-02-01T18:35:21.429Z,3.96
2023-02-01T18:37:56.542Z,3.94
2023-02-01T18:40:33.122Z,3.90
2023-02-01T18:43:15.441Z,3.87
2023-02-01T18:45:49.372Z,3.77
2023-02-01T18:48:23.014Z,3.82
2023-02-01T18:50:57.850Z,3.77
2023-02-01T18:53:31.361Z,3.74
2023-02-01T18:56:04.896Z,3.68
2023-02-01T18:58:39.844Z,3.65
2023-02-01T19:01:17.192Z,3.63
2023-02-01T19:03:53.634Z,3.62
2023-02-01T19:06:30.013Z,3.62
2023-02-01T19:09:03.359Z,3.61
2023-02-01T19:11:37.160Z,3.58
2023-02-01T19:14:12.432Z,3.60
2023-02-01T19:16:46.145Z,3.61
2023-02-01T19:19:19.586Z,3.58
2023-02-01T19:21:52.850Z,3.53
2023-02-01T19:24:28.065Z,3.52
2023-02-01T19:27:01.656Z,3.53
2023-02-01T19:29:37.545Z,3.52
2023-02-01T19:32:10.790Z,3.52
2023-02-01T19:34:44.177Z,3.56
2023-02-01T19:37:17.389Z,3.51
2023-02-01T19:39:50.864Z,3.51
2023-02-01T19:42:24.303Z,3.46
2023-02-01T19:44:59.286Z,3.48
2023-02-01T19:47:32.886Z,3.48
2023-02-01T19:50:07.686Z,3.46
2023-02-01T19:52:41.009Z,3.32
2023-02-01T19:55:15.118Z,3.43
2023-02-01T19:57:49.017Z,3.44
2023-02-01T20:00:23.511Z,3.41
2023-02-01T20:02:58.470Z,3.45
2023-02-01T20:05:31.729Z,3.44
2023-02-01T20:08:05.364Z,3.42
2023-02-01T20:10:43.670Z,3.48
2023-02-01T20:13:18.391Z,3.58
2023-02-01T20:15:58.483Z,3.66
2023-02-01T20:18:31.843Z,3.66
2023-02-01T20:21:05.439Z,3.68
2023-02-01T20:23:38.689Z,3.66
2023-02-01T20:26:13.204Z,3.73
2023-02-01T20:28:46.942Z,3.77
2023-02-01T20:31:21.723Z,3.81
2023-02-01T20:33:55.147Z,3.88
2023-02-01T20:36:29.928Z,3.87
2023-02-01T20:39:03.601Z,3.88
2023-02-01T20:41:36.921Z,3.87
2023-02-01T20:44:11.079Z,3.82
2023-02-01T20:46:45.650Z,3.90
2023-02-01T20:49:18.928Z,3.88
2023-02-01T20:51:52.885Z,3.87
2023-02-01T20:54:26.300Z,3.87
2023-02-01T20:56:59.952Z,3.83
2023-02-01T20:59:33.378Z,3.86
2023-02-01T21:02:08.813Z,3.80
2023-02-01T21:04:42.202Z,3.77
2023-02-01T21:07:15.390Z,3.77
2023-02-01T21:09:48.647Z,3.63
2023-02-01T21:12:22.780Z,3.72
2023-02-01T21:14:56.855Z,3.66
2023-02-01T21:17:33.190Z,3.64
2023-02-01T21:20:08.590Z,3.55
2023-02-01T21:22:41.762Z,3.55
2023-02-01T21:25:15.066Z,3.49
2023-02-01T21:27:48.324Z,3.46
2023-02-01T21:30:22.092Z,3.43
2023-02-01T21:32:59.467Z,3.41
2023-02-01T21:35:33.158Z,3.35
2023-02-01T21:38:06.426Z,3.33
2023-02-01T21:40:39.650Z,3.28
2023-02-01T21:43:13.024Z,3.25
2023-02-01T21:45:51.381Z,3.22
2023-02-01T21:48:26.851Z,3.19
2023-02-01T21:51:00.266Z,3.14
2023-02-01T21:53:33.840Z,3.09
2023-02-01T21:56:07.879Z,3.09
2023-02-01T21:58:42.065Z,3.05
2023-02-01T22:01:15.155Z,2.92
2023-02-01T22:03:50.268Z,2.91
2023-02-01T22:06:24.872Z,3.00
2023-02-01T22:08:58.846Z,2.97
2023-02-01T22:11:32.545Z,2.95
2023-02-01T22:14:06.077Z,3.00
2023-02-01T22:16:40.141Z,2.69
2023-02-01T22:19:15.450Z,2.97
2023-02-01T22:21:49.620Z,2.98
2023-02-01T22:24:22.673Z,3.06
2023-02-01T22:26:55.895Z,2.65
2023-02-01T22:29:47.433Z,3.04
2023-02-01T22:32:20.722Z,3.00
2023-02-01T22:34:56.158Z,2.99
2023-02-01T22:37:29.531Z,2.96
2023-02-01T22:40:04.763Z,2.64
2023-02-01T22:42:38.265Z,2.95
2023-02-01T22:45:12.267Z,2.84
2023-02-01T22:47:45.318Z,2.79
2023-02-01T22:50:20.581Z,2.83
2023-02-01T22:52:53.875Z,2.85
2023-02-01T22:55:27.125Z,2.69
2023-02-01T22:58:00.875Z,2.76
2023-02-01T23:00:34.125Z,2.70
2023-02-01T23:03:07.858Z,2.73
2023-02-01T23:05:42.541Z,2.66
2023-02-01T23:08:15.743Z,2.64
2023-02-01T23:10:49.020Z,2.60
2023-02-01T23:13:22.658Z,2.51
2023-02-01T23:15:56.628Z,2.38
2023-02-01T23:18:30.608Z,2.44
2023-02-01T23:21:07.485Z,2.47
2023-02-01T23:23:40.956Z,2.38
2023-02-01T23:26:14.436Z,2.42
2023-02-01T23:28:49.787Z,2.45
2023-02-01T23:31:25.329Z,2.22
2023-02-01T23:33:59.866Z,2.24
2023-02-01T23:36:34.868Z,2.12
2023-02-01T23:39:07.978Z,2.22
2023-02-01T23:41:41.433Z,2.11
2023-02-01T23:44:14.804Z,2.13
2023-02-01T23:46:48.068Z,2.00
2023-02-01T23:49:21.494Z,1.97
2023-02-01T23:51:56.447Z,1.95
2023-02-01T23:54:29.593Z,1.90
2023-02-01T23:57:07.907Z,1.92
2023-02-01T23:59:41.456Z,1.98
